createdAt,value
2022-12-08T00:01:22.588Z,69.93
2022-12-08T00:03:50.421Z,69.42
2022-12-08T00:06:53.706Z,69.42
2022-12-08T00:09:41.512Z,68.21
2022-12-08T00:12:13.915Z,69.66
2022-12-08T00:14:46.893Z,69.64
2022-12-08T00:17:15.876Z,68.99
2022-12-08T00:19:43.968Z,69.24
2022-12-08T00:22:12.502Z,68.40
2022-12-08T00:24:40.786Z,68.83
2022-12-08T00:27:09.326Z,67.94
2022-12-08T00:29:37.191Z,67.83
2022-12-08T00:32:04.909Z,68.03
2022-12-08T00:34:33.281Z,68.09
2022-12-08T00:37:00.507Z,68.84
2022-12-08T00:39:27.859Z,68.95
2022-12-08T00:42:12.813Z,69.10
2022-12-08T00:44:40.939Z,68.42
2022-12-08T00:47:07.939Z,67.33
2022-12-08T00:49:35.039Z,67.74
2022-12-08T00:52:02.122Z,67.26
2022-12-08T00:54:29.212Z,67.86
2022-12-08T00:56:56.332Z,68.62
2022-12-08T00:59:23.305Z,68.90
2022-12-08T01:01:50.348Z,68.61
2022-12-08T01:04:19.246Z,68.05
2022-12-08T01:06:46.994Z,68.53
2022-12-08T01:09:15.375Z,68.49
2022-12-08T01:11:44.574Z,68.31
2022-12-08T01:14:12.531Z,69.17
2022-12-08T01:16:41.620Z,68.50
2022-12-08T01:19:11.332Z,67.91
2022-12-08T01:21:38.384Z,68.48
2022-12-08T01:24:05.802Z,68.02
2022-12-08T01:26:32.806Z,69.44
2022-12-08T01:29:00.104Z,68.90
2022-12-08T01:31:27.314Z,69.00
2022-12-08T01:33:54.344Z,68.33
2022-12-08T01:36:30.496Z,68.24
2022-12-08T01:39:00.009Z,66.76
2022-12-08T01:41:32.433Z,67.61
2022-12-08T01:44:08.332Z,67.83
2022-12-08T01:46:38.317Z,67.30
2022-12-08T01:49:05.292Z,66.02
2022-12-08T01:51:38.510Z,66.09
2022-12-08T01:54:07.045Z,67.63
2022-12-08T01:56:42.763Z,66.21
2022-12-08T01:59:11.866Z,65.79
2022-12-08T02:01:39.364Z,66.08
2022-12-08T02:04:06.870Z,66.18
2022-12-08T02:06:39.885Z,65.86
2022-12-08T02:09:07.467Z,65.16
2022-12-08T02:11:34.555Z,65.07
2022-12-08T02:14:08.390Z,64.87
2022-12-08T02:16:43.410Z,64.34
2022-12-08T02:19:32.349Z,64.73
2022-12-08T02:22:17.516Z,64.82
2022-12-08T02:25:22.193Z,66.43
2022-12-08T02:28:21.161Z,66.30
2022-12-08T02:31:05.389Z,66.70
2022-12-08T02:34:07.755Z,66.27
2022-12-08T02:36:44.309Z,66.09
2022-12-08T02:39:25.068Z,64.94
2022-12-08T02:42:04.438Z,64.54
2022-12-08T02:44:52.762Z,65.37
2022-12-08T02:47:21.918Z,65.26
2022-12-08T02:49:49.136Z,65.78
2022-12-08T02:52:18.918Z,65.00
2022-12-08T02:54:53.994Z,64.66
2022-12-08T02:57:49.222Z,65.68
2022-12-08T03:00:20.149Z,65.77
2022-12-08T03:03:05.805Z,65.15
2022-12-08T03:05:51.160Z,66.72
2022-12-08T03:08:36.192Z,66.59
2022-12-08T03:11:21.062Z,65.17
2022-12-08T03:13:54.344Z,65.82
2022-12-08T03:16:26.607Z,66.08
2022-12-08T03:19:03.637Z,66.14
2022-12-08T03:21:35.258Z,66.69
2022-12-08T03:24:06.866Z,66.57
2022-12-08T03:26:45.904Z,65.88
2022-12-08T03:29:14.082Z,65.01
2022-12-08T03:31:49.469Z,66.82
2022-12-08T03:34:18.302Z,66.91
2022-12-08T03:36:45.803Z,65.65
2022-12-08T03:39:12.848Z,65.40
2022-12-08T03:41:39.777Z,67.33
2022-12-08T03:44:06.931Z,66.28
2022-12-08T03:46:33.960Z,65.68
2022-12-08T03:49:00.997Z,65.92
2022-12-08T03:51:28.296Z,66.09
2022-12-08T03:53:55.331Z,64.76
2022-12-08T03:56:29.738Z,64.87
2022-12-08T03:58:57.036Z,65.27
2022-12-08T04:01:24.482Z,64.40
2022-12-08T04:03:52.154Z,65.44
2022-12-08T04:06:20.249Z,65.99
2022-12-08T04:08:47.996Z,66.03
2022-12-08T04:11:15.709Z,65.54
2022-12-08T04:13:43.387Z,65.50
2022-12-08T04:16:17.050Z,65.69
2022-12-08T04:18:44.239Z,66.11
2022-12-08T04:21:11.528Z,65.53
2022-12-08T04:23:38.527Z,65.57
2022-12-08T04:26:06.556Z,64.90
2022-12-08T04:28:33.942Z,66.63
2022-12-08T04:31:01.303Z,66.33
2022-12-08T04:33:28.410Z,67.21
2022-12-08T04:35:55.487Z,67.28
2022-12-08T04:38:22.863Z,68.11
2022-12-08T04:40:49.903Z,68.15
2022-12-08T04:43:16.921Z,71.09
2022-12-08T04:45:43.940Z,71.14
2022-12-08T04:48:13.286Z,70.63
2022-12-08T04:50:42.923Z,73.91
2022-12-08T04:53:11.168Z,73.93
2022-12-08T04:55:43.940Z,74.91
2022-12-08T04:58:15.020Z,76.12
2022-12-08T05:00:42.391Z,75.99
2022-12-08T05:03:09.981Z,74.30
2022-12-08T05:05:36.995Z,72.81
2022-12-08T05:08:04.794Z,72.07
2022-12-08T05:10:32.617Z,72.63
2022-12-08T05:13:01.054Z,73.67
2022-12-08T05:15:28.394Z,74.88
2022-12-08T05:17:55.484Z,73.87
2022-12-08T05:20:22.620Z,73.49
2022-12-08T05:22:49.730Z,72.82
2022-12-08T05:25:16.752Z,73.25
2022-12-08T05:27:43.905Z,75.74
2022-12-08T05:30:11.145Z,75.37
2022-12-08T05:32:38.156Z,74.86
2022-12-08T05:35:05.628Z,73.40
2022-12-08T05:37:32.601Z,72.42
2022-12-08T05:39:59.717Z,72.35
2022-12-08T05:42:26.673Z,70.96
2022-12-08T05:44:53.717Z,72.73
2022-12-08T05:47:20.781Z,73.17
2022-12-08T05:49:48.440Z,73.58
2022-12-08T05:52:16.998Z,72.89
2022-12-08T05:54:44.416Z,71.08
2022-12-08T05:57:11.654Z,70.39
2022-12-08T05:59:39.315Z,70.47
2022-12-08T06:02:06.527Z,69.91
2022-12-08T06:04:33.680Z,70.49
2022-12-08T06:07:00.651Z,70.36
2022-12-08T06:09:27.719Z,70.96
2022-12-08T06:11:54.668Z,71.37
2022-12-08T06:14:21.722Z,70.36
2022-12-08T06:16:48.779Z,70.69
2022-12-08T06:19:16.069Z,70.43
2022-12-08T06:21:43.018Z,71.01
2022-12-08T06:24:10.320Z,69.22
2022-12-08T06:26:37.795Z,70.36
2022-12-08T06:29:05.138Z,70.12
2022-12-08T06:31:32.262Z,68.76
2022-12-08T06:33:59.350Z,68.16
2022-12-08T06:36:28.266Z,69.58
2022-12-08T06:38:55.723Z,70.75
2022-12-08T06:41:23.089Z,70.23
2022-12-08T06:43:50.150Z,69.50
2022-12-08T06:46:19.679Z,69.17
2022-12-08T06:48:47.243Z,68.39
2022-12-08T06:51:17.172Z,68.38
2022-12-08T06:53:44.645Z,67.17
2022-12-08T06:56:12.137Z,67.34
2022-12-08T06:58:39.202Z,68.05
2022-12-08T07:01:12.468Z,68.38
2022-12-08T07:03:40.889Z,69.31
2022-12-08T07:06:08.006Z,67.53
2022-12-08T07:08:35.262Z,68.12
2022-12-08T07:11:12.383Z,67.21
2022-12-08T07:13:41.239Z,66.07
2022-12-08T07:16:09.963Z,65.95
2022-12-08T07:18:37.795Z,65.31
2022-12-08T07:21:10.859Z,64.71
2022-12-08T07:23:38.347Z,65.99
2022-12-08T07:26:08.443Z,65.77
2022-12-08T07:28:38.278Z,65.13
2022-12-08T07:31:06.508Z,64.74
2022-12-08T07:33:36.206Z,65.17
2022-12-08T07:36:06.800Z,65.56
2022-12-08T07:38:34.141Z,64.33
2022-12-08T07:41:01.511Z,64.66
2022-12-08T07:43:28.543Z,65.04
2022-12-08T07:45:55.679Z,65.29
2022-12-08T07:48:22.956Z,66.83
2022-12-08T07:50:49.932Z,66.22
2022-12-08T07:53:16.851Z,64.81
2022-12-08T07:55:44.399Z,65.54
2022-12-08T07:58:12.251Z,66.33
2022-12-08T08:00:39.298Z,65.74
2022-12-08T08:03:06.608Z,64.38
2022-12-08T08:05:33.581Z,63.73
2022-12-08T08:08:00.591Z,62.57
2022-12-08T08:10:27.698Z,62.87
2022-12-08T08:12:54.863Z,62.91
2022-12-08T08:15:22.093Z,62.86
2022-12-08T08:17:53.522Z,62.95
2022-12-08T08:20:21.827Z,63.25
2022-12-08T08:22:50.707Z,62.81
2022-12-08T08:25:18.776Z,62.89
2022-12-08T08:27:46.920Z,62.55
2022-12-08T08:30:19.938Z,63.17
2022-12-08T08:32:48.132Z,63.46
2022-12-08T08:35:15.220Z,63.04
2022-12-08T08:37:47.210Z,62.80
2022-12-08T08:40:16.774Z,63.19
2022-12-08T08:42:43.795Z,63.62
2022-12-08T08:45:11.311Z,63.07
2022-12-08T08:47:38.290Z,63.46
2022-12-08T08:50:06.110Z,62.93
2022-12-08T08:52:33.411Z,63.72
2022-12-08T08:55:00.461Z,64.08
2022-12-08T08:57:27.547Z,63.47
2022-12-08T08:59:54.985Z,63.07
2022-12-08T09:02:22.291Z,63.34
2022-12-08T09:04:49.558Z,63.99
2022-12-08T09:07:17.092Z,62.81
2022-12-08T09:09:44.136Z,63.44
2022-12-08T09:12:12.203Z,61.93
2022-12-08T09:14:39.429Z,62.50
2022-12-08T09:17:07.769Z,64.25
2022-12-08T09:19:35.135Z,64.30
2022-12-08T09:22:02.207Z,64.33
2022-12-08T09:24:29.228Z,64.00
2022-12-08T09:26:56.261Z,64.62
2022-12-08T09:29:23.239Z,63.52
2022-12-08T09:31:50.330Z,63.40
2022-12-08T09:34:17.389Z,63.33
2022-12-08T09:36:44.397Z,63.11
2022-12-08T09:39:11.419Z,64.12
2022-12-08T09:41:48.313Z,64.25
2022-12-08T09:44:31.360Z,64.63
2022-12-08T09:47:00.643Z,65.27
2022-12-08T09:49:41.024Z,65.04
2022-12-08T09:52:20.084Z,64.93
2022-12-08T09:54:47.378Z,64.71
2022-12-08T09:57:20.038Z,65.22
2022-12-08T09:59:55.761Z,65.71
2022-12-08T10:02:29.348Z,65.90
2022-12-08T10:04:57.900Z,66.26
2022-12-08T10:07:39.543Z,65.84
2022-12-08T10:10:34.143Z,68.44
2022-12-08T10:13:04.088Z,67.32
2022-12-08T10:15:42.034Z,67.04
2022-12-08T10:18:16.244Z,66.99
2022-12-08T10:20:45.650Z,66.73
2022-12-08T10:23:12.569Z,67.10
2022-12-08T10:26:05.255Z,65.90
2022-12-08T10:28:34.327Z,64.89
2022-12-08T10:31:01.664Z,64.99
2022-12-08T10:33:31.584Z,64.17
2022-12-08T10:36:01.949Z,65.69
2022-12-08T10:38:28.910Z,64.91
2022-12-08T10:41:04.712Z,65.90
2022-12-08T10:43:33.383Z,65.05
2022-12-08T10:46:16.010Z,65.60
2022-12-08T10:48:51.706Z,65.46
2022-12-08T10:51:35.486Z,65.73
2022-12-08T10:54:03.369Z,65.01
2022-12-08T10:56:31.984Z,64.36
2022-12-08T10:59:25.901Z,63.94
2022-12-08T11:01:55.610Z,64.45
2022-12-08T11:04:37.392Z,65.76
2022-12-08T11:07:13.169Z,65.75
2022-12-08T11:09:48.714Z,66.84
2022-12-08T11:12:21.523Z,66.65
2022-12-08T11:14:50.329Z,66.17
2022-12-08T11:17:23.118Z,66.46
2022-12-08T11:20:19.547Z,66.28
2022-12-08T11:22:55.738Z,67.76
2022-12-08T11:25:25.334Z,67.56
2022-12-08T11:27:58.650Z,67.70
2022-12-08T11:30:30.759Z,66.91
2022-12-08T11:33:19.765Z,67.72
2022-12-08T11:36:09.642Z,67.39
2022-12-08T11:38:42.022Z,67.44
2022-12-08T11:41:15.805Z,68.37
2022-12-08T11:43:55.826Z,67.34
2022-12-08T11:46:32.628Z,67.40
2022-12-08T11:49:06.804Z,66.82
2022-12-08T11:51:44.217Z,67.11
2022-12-08T11:54:24.240Z,66.90
2022-12-08T11:56:59.417Z,66.87
2022-12-08T11:59:39.620Z,67.21
2022-12-08T12:02:14.650Z,68.33
2022-12-08T12:05:07.905Z,67.63
2022-12-08T12:07:56.097Z,68.69
2022-12-08T12:10:25.892Z,68.39
2022-12-08T12:13:10.079Z,67.60
2022-12-08T12:15:37.006Z,67.41
2022-12-08T12:18:25.131Z,66.56
2022-12-08T12:21:12.389Z,65.71
2022-12-08T12:23:44.818Z,66.95
2022-12-08T12:26:22.939Z,68.12
2022-12-08T12:28:58.065Z,66.92
2022-12-08T12:31:29.679Z,67.52
2022-12-08T12:34:06.591Z,67.67
2022-12-08T12:36:47.591Z,66.77
2022-12-08T12:39:15.639Z,67.34
2022-12-08T12:41:52.350Z,67.06
2022-12-08T12:44:19.335Z,68.37
2022-12-08T12:46:46.364Z,67.91
2022-12-08T12:49:38.022Z,67.65
2022-12-08T12:52:10.779Z,67.49
2022-12-08T12:54:42.818Z,67.24
2022-12-08T12:57:09.738Z,67.03
2022-12-08T12:59:44.127Z,67.91
2022-12-08T13:02:27.600Z,67.75
2022-12-08T13:05:03.756Z,67.09
2022-12-08T13:07:49.444Z,67.80
2022-12-08T13:10:21.858Z,67.49
2022-12-08T13:13:16.937Z,67.81
2022-12-08T13:15:46.902Z,67.88
2022-12-08T13:18:23.895Z,67.98
2022-12-08T13:20:54.844Z,67.99
2022-12-08T13:23:37.119Z,67.56
2022-12-08T13:26:22.171Z,67.64
2022-12-08T13:29:01.612Z,67.88
2022-12-08T13:31:41.642Z,67.72
2022-12-08T13:34:16.792Z,67.63
2022-12-08T13:36:59.841Z,67.11
2022-12-08T13:39:42.344Z,67.12
2022-12-08T13:42:12.486Z,66.38
2022-12-08T13:45:19.055Z,66.86
2022-12-08T13:47:54.366Z,66.47
2022-12-08T13:59:09.901Z,67.06
2022-12-08T14:01:44.959Z,68.70
2022-12-08T14:04:54.424Z,68.02
2022-12-08T14:07:06.355Z,68.12
2022-12-08T14:09:36.914Z,67.86
2022-12-08T14:12:17.613Z,67.25
2022-12-08T14:15:03.866Z,66.77
2022-12-08T14:17:34.997Z,67.65
2022-12-08T14:20:10.124Z,68.17
2022-12-08T14:22:40.216Z,66.76
2022-12-08T14:25:13.689Z,65.98
2022-12-08T14:27:40.959Z,67.39
2022-12-08T14:30:10.796Z,67.60
2022-12-08T14:32:40.375Z,67.63
2022-12-08T14:35:07.871Z,67.15
2022-12-08T14:37:42.387Z,67.35
2022-12-08T14:40:22.692Z,66.36
2022-12-08T14:43:06.120Z,66.40
2022-12-08T14:45:34.988Z,66.47
2022-12-08T14:48:27.831Z,66.44
2022-12-08T14:51:01.929Z,66.86
2022-12-08T14:53:45.245Z,67.66
2022-12-08T14:56:27.525Z,68.43
2022-12-08T14:59:25.565Z,67.20
2022-12-08T15:01:54.944Z,67.90
2022-12-08T15:04:28.645Z,67.30
2022-12-08T15:07:17.378Z,67.57
2022-12-08T15:09:50.174Z,67.66
2022-12-08T15:12:26.664Z,67.18
2022-12-08T15:15:17.780Z,68.44
2022-12-08T15:17:47.917Z,69.21
2022-12-08T15:20:35.611Z,67.64
2022-12-08T15:23:03.320Z,67.47
2022-12-08T15:25:30.519Z,67.15
2022-12-08T15:27:58.160Z,67.29
2022-12-08T15:30:28.762Z,66.84
2022-12-08T15:32:56.532Z,67.21
2022-12-08T15:35:23.636Z,66.25
2022-12-08T15:37:50.709Z,66.55
2022-12-08T15:40:20.632Z,66.59
2022-12-08T15:42:47.937Z,66.89
2022-12-08T15:45:17.186Z,67.51
2022-12-08T15:47:45.939Z,66.88
2022-12-08T15:50:21.948Z,66.45
2022-12-08T15:52:50.220Z,65.85
2022-12-08T15:55:19.527Z,67.02
2022-12-08T15:58:52.002Z,66.89
2022-12-08T16:00:54.450Z,66.42
2022-12-08T16:09:28.425Z,67.19
2022-12-08T16:12:15.063Z,67.25
2022-12-08T16:17:31.915Z,66.87
2022-12-08T16:20:00.173Z,67.24
2022-12-08T16:22:54.178Z,65.74
2022-12-08T16:25:19.396Z,67.31
2022-12-08T16:28:05.514Z,68.39
2022-12-08T16:30:36.241Z,68.13
2022-12-08T16:33:03.462Z,67.92
2022-12-08T16:35:31.341Z,68.83
2022-12-08T16:37:58.361Z,67.77
2022-12-08T16:40:25.351Z,67.91
2022-12-08T16:42:52.334Z,67.73
2022-12-08T16:45:25.390Z,67.04
2022-12-08T16:48:01.660Z,66.77
2022-12-08T16:50:34.182Z,67.34
2022-12-08T16:53:07.094Z,67.48
2022-12-08T16:55:34.506Z,69.39
2022-12-08T16:58:02.940Z,67.94
2022-12-08T17:00:31.599Z,67.81
2022-12-08T17:02:59.050Z,67.51
2022-12-08T17:05:26.812Z,68.04
2022-12-08T17:07:55.019Z,68.32
2022-12-08T17:10:25.279Z,68.93
2022-12-08T17:12:53.196Z,68.95
2022-12-08T17:15:23.461Z,68.45
2022-12-08T17:17:51.359Z,68.17
2022-12-08T17:20:24.595Z,68.91
2022-12-08T17:22:55.333Z,68.83
2022-12-08T17:25:22.381Z,68.97
2022-12-08T17:27:49.361Z,69.76
2022-12-08T17:30:35.294Z,69.34
2022-12-08T17:33:02.271Z,70.75
2022-12-08T17:35:29.340Z,70.96
2022-12-08T17:37:56.340Z,70.75
2022-12-08T17:40:26.888Z,70.29
2022-12-08T17:42:55.318Z,71.16
2022-12-08T17:45:22.334Z,70.65
2022-12-08T17:47:49.297Z,71.01
2022-12-08T17:50:16.364Z,71.74
2022-12-08T17:52:43.331Z,71.64
2022-12-08T17:55:10.667Z,72.27
2022-12-08T17:57:37.671Z,72.24
2022-12-08T18:00:05.905Z,72.09
2022-12-08T18:02:39.107Z,73.69
2022-12-08T18:05:06.588Z,73.01
2022-12-08T18:07:33.532Z,72.63
2022-12-08T18:10:00.511Z,73.01
2022-12-08T18:12:27.507Z,71.84
2022-12-08T18:14:54.567Z,72.11
2022-12-08T18:17:21.699Z,71.88
2022-12-08T18:19:48.775Z,72.30
2022-12-08T18:22:16.138Z,71.67
2022-12-08T18:24:44.337Z,71.52
2022-12-08T18:27:11.386Z,73.64
2022-12-08T18:29:38.798Z,74.42
2022-12-08T18:32:06.419Z,74.68
2022-12-08T18:34:34.288Z,73.67
2022-12-08T18:37:01.422Z,72.63
2022-12-08T18:39:31.398Z,72.45
2022-12-08T18:42:01.359Z,71.20
2022-12-08T18:44:28.891Z,72.12
2022-12-08T18:46:55.911Z,72.97
2022-12-08T18:49:22.905Z,73.08
2022-12-08T18:51:49.871Z,72.85
2022-12-08T18:54:16.824Z,71.24
2022-12-08T18:56:43.799Z,72.77
2022-12-08T18:59:12.489Z,73.23
2022-12-08T19:01:40.476Z,73.19
2022-12-08T19:04:27.820Z,74.45
2022-12-08T19:06:56.106Z,74.95
2022-12-08T19:09:24.567Z,75.59
2022-12-08T19:11:51.636Z,75.15
2022-12-08T19:14:24.030Z,75.01
2022-12-08T19:16:54.464Z,74.26
2022-12-08T19:19:21.662Z,73.79
2022-12-08T19:21:48.702Z,73.62
2022-12-08T19:24:16.129Z,73.98
2022-12-08T19:26:43.771Z,73.59
2022-12-08T19:29:11.610Z,73.83
2022-12-08T19:31:40.725Z,73.47
2022-12-08T19:34:09.355Z,73.46
2022-12-08T19:36:42.324Z,73.77
2022-12-08T19:39:36.657Z,74.30
2022-12-08T19:42:24.591Z,75.02
2022-12-08T19:44:54.678Z,74.83
2022-12-08T19:47:24.086Z,74.13
2022-12-08T19:49:51.943Z,74.49
2022-12-08T19:52:19.278Z,74.37
2022-12-08T19:54:46.569Z,74.09
2022-12-08T19:57:13.691Z,73.61
2022-12-08T19:59:40.735Z,73.02
2022-12-08T20:02:07.909Z,73.58
2022-12-08T20:04:35.057Z,73.07
2022-12-08T20:07:02.232Z,74.17
2022-12-08T20:09:29.353Z,74.58
2022-12-08T20:11:56.345Z,75.24
2022-12-08T20:14:23.698Z,74.93
2022-12-08T20:16:51.248Z,73.84
2022-12-08T20:19:18.617Z,74.08
2022-12-08T20:21:45.974Z,74.43
2022-12-08T20:24:13.030Z,73.98
2022-12-08T20:26:40.081Z,74.55
2022-12-08T20:29:07.100Z,74.41
2022-12-08T20:31:34.329Z,74.68
2022-12-08T20:34:02.025Z,73.88
2022-12-08T20:36:29.547Z,73.80
2022-12-08T20:38:56.663Z,74.94
2022-12-08T20:41:23.934Z,74.63
2022-12-08T20:43:51.954Z,74.59
2022-12-08T20:46:20.361Z,74.33
2022-12-08T20:48:47.567Z,75.42
2022-12-08T20:51:17.083Z,75.35
2022-12-08T20:53:44.750Z,75.03
2022-12-08T20:56:19.946Z,75.12
2022-12-08T20:58:47.443Z,75.33
2022-12-08T21:01:17.688Z,74.18
2022-12-08T21:03:45.918Z,74.83
2022-12-08T21:06:13.593Z,75.34
2022-12-08T21:08:42.285Z,74.63
2022-12-08T21:11:10.424Z,75.27
2022-12-08T21:13:38.708Z,75.34
2022-12-08T21:16:09.286Z,74.29
2022-12-08T21:18:39.612Z,74.98
2022-12-08T21:21:14.319Z,74.60
2022-12-08T21:23:42.410Z,75.91
2022-12-08T21:26:14.684Z,75.44
2022-12-08T21:28:42.602Z,75.08
2022-12-08T21:31:20.299Z,74.25
2022-12-08T21:33:48.546Z,74.44
2022-12-08T21:36:18.717Z,74.52
2022-12-08T21:38:47.274Z,75.10
2022-12-08T21:41:38.101Z,75.05
2022-12-08T21:44:06.098Z,75.01
2022-12-08T21:46:33.143Z,75.13
2022-12-08T21:49:00.332Z,74.08
2022-12-08T21:51:27.461Z,73.92
2022-12-08T21:53:54.726Z,74.29
2022-12-08T21:56:21.745Z,74.22
2022-12-08T21:58:49.812Z,76.71
2022-12-08T22:01:17.034Z,77.45
2022-12-08T22:03:44.217Z,76.42
2022-12-08T22:06:13.855Z,76.68
2022-12-08T22:08:41.919Z,75.86
2022-12-08T22:11:10.365Z,76.22
2022-12-08T22:13:39.769Z,76.06
2022-12-08T22:16:09.947Z,75.89
2022-12-08T22:18:37.660Z,75.50
2022-12-08T22:21:09.793Z,75.51
2022-12-08T22:23:37.291Z,74.33
2022-12-08T22:26:05.679Z,74.08
2022-12-08T22:28:35.801Z,74.64
2022-12-08T22:31:16.895Z,74.34
2022-12-08T22:33:44.320Z,74.31
2022-12-08T22:36:23.475Z,74.22
2022-12-08T22:38:51.571Z,74.69
2022-12-08T22:41:19.272Z,75.59
2022-12-08T22:43:47.387Z,75.53
2022-12-08T22:46:20.647Z,75.10
2022-12-08T22:48:48.094Z,75.27
2022-12-08T22:51:15.840Z,75.00
2022-12-08T22:53:43.260Z,74.35
2022-12-08T22:56:12.801Z,73.06
2022-12-08T22:58:41.368Z,73.68
2022-12-08T23:01:09.026Z,74.60
2022-12-08T23:03:36.203Z,75.37
2022-12-08T23:06:11.651Z,75.67
2022-12-08T23:08:38.989Z,75.16
2022-12-08T23:11:06.260Z,75.06
2022-12-08T23:13:33.229Z,74.81
2022-12-08T23:16:00.240Z,74.47
2022-12-08T23:18:27.280Z,74.41
2022-12-08T23:20:54.408Z,74.22
2022-12-08T23:23:21.640Z,74.53
2022-12-08T23:25:48.623Z,74.78
2022-12-08T23:28:15.747Z,74.46
2022-12-08T23:30:42.790Z,74.10
2022-12-08T23:33:09.897Z,73.89
2022-12-08T23:35:36.950Z,75.21
2022-12-08T23:38:04.692Z,75.78
2022-12-08T23:40:31.927Z,74.55
2022-12-08T23:42:59.165Z,74.92
2022-12-08T23:45:26.339Z,75.05
2022-12-08T23:47:53.328Z,74.56
2022-12-08T23:50:20.329Z,74.98
2022-12-08T23:52:47.343Z,76.44
2022-12-08T23:55:14.529Z,76.24
2022-12-08T23:57:41.522Z,75.73
